createdAt,value
2022-10-31T00:00:44.123Z,93.19
2022-10-31T00:01:47.112Z,93.83
2022-10-31T00:02:51.134Z,93.87
2022-10-31T00:03:54.437Z,93.45
2022-10-31T00:04:58.631Z,93.24
2022-10-31T00:06:02.955Z,93.09
2022-10-31T00:07:06.816Z,93.61
2022-10-31T00:08:09.662Z,93.03
2022-10-31T00:09:14.215Z,93.18
2022-10-31T00:10:17.173Z,93.08
2022-10-31T00:11:22.434Z,93.08
2022-10-31T00:12:25.164Z,92.89
2022-10-31T00:13:29.684Z,92.48
2022-10-31T00:14:32.473Z,91.93
2022-10-31T00:15:36.983Z,92.43
2022-10-31T00:16:41.923Z,92.80
2022-10-31T00:17:46.036Z,92.73
2022-10-31T00:18:50.293Z,92.06
2022-10-31T00:19:54.551Z,92.62
2022-10-31T00:21:01.554Z,92.32
2022-10-31T00:22:05.676Z,92.44
2022-10-31T00:23:08.951Z,92.18
2022-10-31T00:24:13.560Z,91.68
2022-10-31T00:25:16.596Z,92.53
2022-10-31T00:26:22.291Z,91.72
2022-10-31T00:27:25.165Z,91.43
2022-10-31T00:28:33.338Z,91.81
2022-10-31T00:29:36.254Z,91.66
2022-10-31T00:30:40.384Z,91.42
2022-10-31T00:31:43.417Z,91.09
2022-10-31T00:32:47.583Z,91.18
2022-10-31T00:33:50.635Z,91.40
2022-10-31T00:34:55.914Z,91.77
2022-10-31T00:35:59.484Z,91.78
2022-10-31T00:37:03.561Z,91.62
2022-10-31T00:38:06.450Z,91.19
2022-10-31T00:39:10.565Z,91.59
2022-10-31T00:40:13.714Z,91.74
2022-10-31T00:41:18.931Z,91.35
2022-10-31T00:42:23.253Z,91.89
2022-10-31T00:43:27.151Z,91.94
2022-10-31T00:44:29.970Z,91.42
2022-10-31T00:45:33.813Z,91.00
2022-10-31T00:46:36.615Z,90.87
2022-10-31T00:47:40.575Z,91.15
2022-10-31T00:48:43.823Z,91.64
2022-10-31T00:49:47.724Z,91.27
2022-10-31T00:50:50.533Z,91.69
2022-10-31T00:51:54.347Z,91.50
2022-10-31T00:52:58.173Z,91.33
2022-10-31T00:54:02.175Z,91.67
2022-10-31T00:55:05.732Z,91.59
2022-10-31T00:56:09.882Z,91.39
2022-10-31T00:57:13.134Z,91.59
2022-10-31T00:58:19.161Z,91.40
2022-10-31T00:59:21.922Z,91.07
2022-10-31T01:00:25.901Z,91.63
2022-10-31T01:01:29.330Z,91.41
2022-10-31T01:02:34.092Z,91.21
2022-10-31T01:03:37.164Z,91.77
2022-10-31T01:04:41.063Z,91.88
2022-10-31T01:05:43.935Z,91.88
2022-10-31T01:06:48.347Z,91.38
2022-10-31T01:07:52.684Z,91.33
2022-10-31T01:08:56.524Z,91.10
2022-10-31T01:09:59.771Z,91.10
2022-10-31T01:11:07.503Z,91.07
2022-10-31T01:12:10.354Z,91.34
2022-10-31T01:13:16.788Z,91.07
2022-10-31T01:14:23.343Z,91.59
2022-10-31T01:15:27.766Z,91.82
2022-10-31T01:16:31.007Z,91.98
2022-10-31T01:17:35.247Z,92.06
2022-10-31T01:18:38.775Z,92.08
2022-10-31T01:19:42.643Z,92.42
2022-10-31T01:20:45.683Z,92.37
2022-10-31T01:21:49.763Z,92.66
2022-10-31T01:22:52.572Z,92.57
2022-10-31T01:23:57.573Z,92.21
2022-10-31T01:25:01.113Z,92.75
2022-10-31T01:26:08.749Z,92.39
2022-10-31T01:27:11.482Z,92.64
2022-10-31T01:28:15.833Z,92.50
2022-10-31T01:29:18.709Z,92.47
2022-10-31T01:30:23.966Z,92.36
2022-10-31T01:31:28.919Z,92.53
2022-10-31T01:32:33.573Z,92.13
2022-10-31T01:33:36.783Z,92.09
2022-10-31T01:34:40.613Z,92.31
2022-10-31T01:35:43.685Z,92.15
2022-10-31T01:36:52.562Z,92.22
2022-10-31T01:37:55.450Z,92.20
2022-10-31T01:39:00.804Z,92.85
2022-10-31T01:40:03.889Z,92.91
2022-10-31T01:41:07.852Z,92.95
2022-10-31T01:42:12.959Z,93.10
2022-10-31T01:43:16.131Z,93.39
2022-10-31T01:44:53.388Z,93.65
2022-10-31T01:46:01.040Z,93.26
2022-10-31T01:47:07.723Z,93.13
2022-10-31T01:48:16.133Z,93.72
2022-10-31T01:49:23.442Z,93.75
2022-10-31T01:50:32.422Z,93.53
2022-10-31T01:51:37.781Z,93.56
2022-10-31T01:52:43.825Z,93.46
2022-10-31T01:53:47.479Z,93.90
2022-10-31T01:54:53.711Z,94.19
2022-10-31T01:55:57.860Z,95.18
2022-10-31T01:57:01.167Z,94.73
2022-10-31T01:58:08.269Z,94.69
2022-10-31T01:59:13.460Z,95.02
2022-10-31T02:00:18.671Z,94.74
2022-10-31T02:01:23.074Z,95.03
2022-10-31T02:02:28.209Z,95.22
2022-10-31T02:03:32.660Z,95.22
2022-10-31T02:04:36.560Z,95.71
2022-10-31T02:06:01.922Z,95.25
2022-10-31T02:07:07.799Z,95.08
2022-10-31T02:08:16.158Z,95.59
2022-10-31T02:09:22.132Z,95.46
2022-10-31T02:10:26.291Z,95.46
2022-10-31T02:11:29.975Z,95.15
2022-10-31T02:12:35.990Z,95.32
2022-10-31T02:13:40.319Z,95.04
2022-10-31T02:14:44.491Z,95.01
2022-10-31T02:15:50.720Z,94.21
2022-10-31T02:16:55.928Z,94.49
2022-10-31T02:18:00.062Z,94.64
2022-10-31T02:19:04.161Z,94.46
2022-10-31T02:20:15.801Z,93.91
2022-10-31T02:21:21.021Z,94.09
2022-10-31T02:22:29.680Z,93.69
2022-10-31T02:24:03.460Z,94.31
2022-10-31T02:25:34.392Z,94.28
2022-10-31T02:26:57.388Z,94.67
2022-10-31T02:28:27.570Z,94.86
2022-10-31T02:29:54.961Z,93.86
2022-10-31T02:31:21.361Z,93.42
2022-10-31T02:32:28.968Z,93.72
2022-10-31T02:33:39.000Z,93.79
2022-10-31T02:34:53.299Z,94.08
2022-10-31T02:36:05.590Z,94.53
2022-10-31T02:37:13.639Z,94.39
2022-10-31T02:38:25.758Z,94.77
2022-10-31T02:39:32.779Z,95.01
2022-10-31T02:40:39.718Z,94.55
2022-10-31T02:42:10.518Z,94.44
2022-10-31T02:43:17.515Z,94.82
2022-10-31T02:44:25.410Z,94.96
2022-10-31T02:45:31.796Z,94.78
2022-10-31T02:46:41.111Z,94.62
2022-10-31T02:47:46.790Z,94.39
2022-10-31T02:48:51.217Z,94.72
2022-10-31T02:49:57.879Z,94.20
2022-10-31T02:51:03.900Z,94.67
2022-10-31T02:52:16.072Z,94.49
2022-10-31T02:53:19.990Z,94.27
2022-10-31T02:54:24.700Z,93.77
2022-10-31T02:55:49.400Z,93.26
2022-10-31T02:56:56.239Z,93.54
2022-10-31T02:58:02.773Z,93.28
2022-10-31T02:59:07.556Z,93.43
2022-10-31T03:00:12.251Z,93.27
2022-10-31T03:01:28.875Z,93.29
2022-10-31T03:02:57.743Z,92.95
2022-10-31T03:04:28.628Z,92.42
2022-10-31T03:05:46.300Z,92.72
2022-10-31T03:06:55.920Z,92.71
2022-10-31T03:08:03.940Z,92.28
2022-10-31T03:09:13.010Z,92.55
2022-10-31T03:10:22.308Z,92.44
2022-10-31T03:11:30.669Z,92.64
2022-10-31T03:12:44.465Z,93.16
2022-10-31T03:13:53.430Z,93.04
2022-10-31T03:15:09.018Z,92.90
2022-10-31T03:16:16.461Z,92.64
2022-10-31T03:17:25.520Z,92.84
2022-10-31T03:18:32.605Z,93.14
2022-10-31T03:19:40.451Z,93.06
2022-10-31T03:20:47.531Z,92.99
2022-10-31T03:21:52.980Z,93.51
2022-10-31T03:23:00.077Z,93.04
2022-10-31T03:24:03.268Z,92.98
2022-10-31T03:25:08.078Z,92.25
2022-10-31T03:26:12.669Z,92.63
2022-10-31T03:27:18.960Z,92.83
2022-10-31T03:28:26.354Z,93.25
2022-10-31T03:29:33.490Z,92.96
2022-10-31T03:30:38.700Z,92.88
2022-10-31T03:31:54.530Z,92.81
2022-10-31T03:32:59.702Z,92.96
2022-10-31T03:34:09.058Z,92.62
2022-10-31T03:35:13.244Z,92.72
2022-10-31T03:36:18.700Z,92.41
2022-10-31T03:37:22.623Z,92.58
2022-10-31T03:38:26.498Z,92.49
2022-10-31T03:39:30.400Z,91.98
2022-10-31T03:40:36.285Z,92.15
2022-10-31T03:41:42.647Z,92.41
2022-10-31T03:42:51.321Z,92.18
2022-10-31T03:44:02.502Z,92.32
2022-10-31T03:45:09.312Z,92.48
2022-10-31T03:46:12.100Z,92.30
2022-10-31T03:47:16.013Z,92.00
2022-10-31T03:48:20.362Z,91.78
2022-10-31T03:49:25.621Z,91.73
2022-10-31T03:50:33.409Z,92.02
2022-10-31T03:51:44.411Z,92.18
2022-10-31T03:52:50.988Z,92.23
2022-10-31T03:53:57.779Z,91.89
2022-10-31T03:55:04.170Z,91.96
2022-10-31T03:56:12.480Z,91.88
2022-10-31T03:57:19.751Z,91.98
2022-10-31T03:58:26.834Z,91.83
2022-10-31T03:59:34.140Z,92.06
2022-10-31T04:00:42.540Z,92.41
2022-10-31T04:01:49.436Z,92.36
2022-10-31T04:02:58.683Z,92.29
2022-10-31T04:04:04.031Z,92.31
2022-10-31T04:05:10.828Z,92.43
2022-10-31T04:06:15.983Z,92.51
2022-10-31T04:07:21.299Z,92.52
2022-10-31T04:08:28.938Z,92.31
2022-10-31T04:09:36.324Z,92.37
2022-10-31T04:10:40.340Z,92.34
2022-10-31T04:11:49.140Z,92.24
2022-10-31T04:13:25.753Z,92.15
2022-10-31T04:14:38.578Z,92.25
2022-10-31T04:15:44.192Z,92.21
2022-10-31T04:16:47.369Z,92.69
2022-10-31T04:17:53.230Z,92.49
2022-10-31T04:18:57.376Z,92.42
2022-10-31T04:20:02.560Z,92.42
2022-10-31T04:21:09.237Z,92.19
2022-10-31T04:22:13.088Z,92.03
2022-10-31T04:23:19.989Z,92.25
2022-10-31T04:24:26.750Z,92.15
2022-10-31T04:25:29.782Z,91.99
2022-10-31T04:26:35.670Z,92.21
2022-10-31T04:27:38.572Z,92.11
2022-10-31T04:28:44.678Z,92.41
2022-10-31T04:29:50.801Z,92.02
2022-10-31T04:30:55.840Z,92.13
2022-10-31T04:31:59.071Z,92.15
2022-10-31T04:33:03.355Z,92.15
2022-10-31T04:34:06.781Z,91.99
2022-10-31T04:35:11.121Z,92.04
2022-10-31T04:36:16.531Z,91.98
2022-10-31T04:37:19.331Z,91.86
2022-10-31T04:38:25.471Z,92.02
2022-10-31T04:39:29.339Z,92.06
2022-10-31T04:40:53.668Z,92.33
2022-10-31T04:42:14.891Z,92.25
2022-10-31T04:44:26.334Z,92.30
2022-10-31T04:45:37.472Z,92.38
2022-10-31T04:46:40.461Z,92.32
2022-10-31T04:47:45.476Z,92.22
2022-10-31T04:48:48.297Z,92.17
2022-10-31T04:49:53.462Z,92.16
2022-10-31T04:51:00.751Z,92.37
2022-10-31T04:52:06.737Z,92.17
2022-10-31T04:53:09.784Z,92.34
2022-10-31T04:54:25.796Z,92.13
2022-10-31T04:55:49.550Z,91.87
2022-10-31T04:56:56.249Z,91.76
2022-10-31T04:58:01.169Z,91.67
2022-10-31T04:59:04.519Z,91.91
2022-10-31T05:00:22.539Z,92.04
2022-10-31T05:01:26.920Z,92.19
2022-10-31T05:02:32.579Z,92.27
2022-10-31T05:03:35.909Z,92.14
2022-10-31T05:04:40.198Z,91.91
2022-10-31T05:05:44.231Z,91.68
2022-10-31T05:06:50.886Z,91.86
2022-10-31T05:07:55.632Z,92.39
2022-10-31T05:09:01.322Z,92.11
2022-10-31T05:10:05.840Z,92.15
2022-10-31T05:11:10.760Z,92.26
2022-10-31T05:12:14.010Z,92.55
2022-10-31T05:13:36.817Z,92.62
2022-10-31T05:14:48.782Z,92.62
2022-10-31T05:16:12.800Z,92.46
2022-10-31T05:17:46.119Z,92.26
2022-10-31T05:19:08.589Z,92.18
2022-10-31T05:20:11.849Z,92.55
2022-10-31T05:21:35.749Z,92.33
2022-10-31T05:22:44.009Z,92.06
2022-10-31T05:23:49.497Z,92.42
2022-10-31T05:24:53.260Z,92.28
2022-10-31T05:25:57.119Z,92.27
2022-10-31T05:26:59.979Z,92.43
2022-10-31T05:28:04.122Z,92.41
2022-10-31T05:29:07.398Z,92.17
2022-10-31T05:30:13.267Z,92.28
2022-10-31T05:31:17.126Z,92.01
2022-10-31T05:32:20.991Z,92.40
2022-10-31T05:33:50.651Z,92.55
2022-10-31T05:35:28.301Z,92.63
2022-10-31T05:36:52.083Z,92.33
2022-10-31T05:37:59.013Z,92.28
2022-10-31T05:39:04.657Z,92.48
2022-10-31T05:40:14.131Z,92.36
2022-10-31T05:41:18.029Z,92.49
2022-10-31T05:42:23.522Z,92.57
2022-10-31T05:43:27.418Z,92.35
2022-10-31T05:44:30.671Z,92.45
2022-10-31T05:45:58.999Z,92.48
2022-10-31T05:47:21.289Z,92.26
2022-10-31T05:48:42.267Z,92.35
2022-10-31T05:50:07.510Z,92.64
2022-10-31T05:51:23.145Z,93.11
2022-10-31T05:52:27.108Z,93.15
2022-10-31T05:53:38.258Z,93.00
2022-10-31T05:54:42.669Z,93.26
2022-10-31T05:55:46.610Z,93.53
2022-10-31T05:56:59.109Z,93.34
2022-10-31T05:58:03.252Z,93.45
2022-10-31T05:59:06.871Z,93.46
2022-10-31T06:00:11.866Z,93.53
2022-10-31T06:01:26.871Z,93.54
2022-10-31T06:02:35.684Z,93.57
2022-10-31T06:03:57.949Z,93.58
2022-10-31T06:05:00.866Z,93.87
2022-10-31T06:06:04.947Z,94.07
2022-10-31T06:07:17.632Z,94.29
2022-10-31T06:08:21.458Z,94.29
2022-10-31T06:09:25.310Z,94.40
2022-10-31T06:10:30.972Z,94.37
2022-10-31T06:11:34.230Z,94.07
2022-10-31T06:12:41.840Z,94.07
2022-10-31T06:14:01.349Z,94.48
2022-10-31T06:15:44.330Z,94.87
2022-10-31T06:16:48.430Z,95.34
2022-10-31T06:18:11.105Z,95.03
2022-10-31T06:19:25.250Z,95.34
2022-10-31T06:20:29.218Z,95.12
2022-10-31T06:21:40.349Z,95.14
2022-10-31T06:22:43.084Z,95.03
2022-10-31T06:23:46.940Z,95.84
2022-10-31T06:25:23.139Z,95.53
2022-10-31T06:26:29.073Z,95.86
2022-10-31T06:27:32.013Z,95.50
2022-10-31T06:28:42.055Z,95.58
2022-10-31T06:30:01.587Z,96.29
2022-10-31T06:31:07.763Z,96.49
2022-10-31T06:32:13.180Z,96.60
2022-10-31T06:33:19.199Z,96.63
2022-10-31T06:34:32.912Z,97.29
2022-10-31T06:35:36.079Z,97.51
2022-10-31T06:36:46.984Z,97.99
2022-10-31T06:37:57.917Z,97.82
2022-10-31T06:39:13.193Z,98.69
2022-10-31T06:40:17.370Z,99.26
2022-10-31T06:41:45.272Z,100.00
2022-10-31T06:42:49.070Z,100.00
2022-10-31T06:43:53.031Z,100.00
2022-10-31T06:45:13.779Z,100.00
2022-10-31T06:46:48.827Z,100.00
2022-10-31T06:48:17.188Z,100.00
2022-10-31T06:49:49.271Z,100.00
2022-10-31T06:51:01.716Z,100.00
2022-10-31T06:52:06.327Z,100.00
2022-10-31T06:54:18.998Z,100.00
2022-10-31T06:55:23.774Z,100.00
2022-10-31T06:56:27.604Z,100.00
2022-10-31T06:57:34.068Z,100.00
2022-10-31T06:58:38.019Z,100.00
2022-10-31T06:59:43.211Z,100.00
2022-10-31T07:01:05.670Z,100.00
2022-10-31T07:02:10.862Z,100.00
2022-10-31T07:03:17.767Z,100.00
2022-10-31T07:04:21.589Z,100.00
2022-10-31T07:05:25.771Z,100.00
2022-10-31T07:06:29.799Z,100.00
2022-10-31T07:07:32.851Z,100.00
2022-10-31T07:08:36.838Z,100.00
2022-10-31T07:09:40.910Z,100.00
2022-10-31T07:10:54.078Z,100.00
2022-10-31T07:11:57.851Z,100.00
2022-10-31T07:13:05.199Z,100.00
2022-10-31T07:14:12.221Z,100.00
2022-10-31T07:15:15.377Z,100.00
2022-10-31T07:16:19.202Z,100.00
2022-10-31T07:17:29.878Z,100.00
2022-10-31T07:18:37.454Z,100.00
2022-10-31T07:19:40.398Z,100.00
2022-10-31T07:20:45.927Z,100.00
2022-10-31T07:21:48.797Z,100.00
2022-10-31T07:22:53.667Z,100.00
2022-10-31T07:23:57.320Z,100.00
2022-10-31T07:25:19.724Z,100.00
2022-10-31T07:26:44.084Z,100.00
2022-10-31T07:27:47.560Z,100.00
2022-10-31T07:28:52.924Z,100.00
2022-10-31T07:29:59.045Z,100.00
2022-10-31T07:31:04.490Z,100.00
2022-10-31T07:32:07.307Z,100.00
2022-10-31T07:33:14.229Z,100.00
2022-10-31T07:34:37.928Z,100.00
2022-10-31T07:36:08.798Z,100.00
2022-10-31T07:37:12.281Z,100.00
2022-10-31T07:38:17.419Z,100.00
2022-10-31T07:39:21.819Z,99.81
2022-10-31T07:40:26.273Z,100.00
2022-10-31T07:41:31.471Z,100.00
2022-10-31T07:42:37.186Z,99.60
2022-10-31T07:43:41.925Z,99.79
2022-10-31T07:45:12.298Z,99.57
2022-10-31T07:46:44.867Z,99.80
2022-10-31T07:48:14.720Z,99.36
2022-10-31T07:49:47.672Z,99.82
2022-10-31T07:51:10.045Z,99.51
2022-10-31T07:52:36.999Z,99.08
2022-10-31T07:54:00.992Z,99.66
2022-10-31T07:55:08.727Z,99.31
2022-10-31T07:56:13.457Z,99.58
2022-10-31T07:57:19.204Z,98.55
2022-10-31T07:58:26.360Z,99.09
2022-10-31T07:59:29.078Z,99.25
2022-10-31T08:00:35.551Z,99.10
2022-10-31T08:01:39.571Z,99.32
2022-10-31T08:03:05.574Z,98.98
2022-10-31T08:04:38.523Z,99.22
2022-10-31T08:06:15.517Z,98.63
2022-10-31T08:07:40.950Z,98.44
2022-10-31T08:08:53.789Z,98.80
2022-10-31T08:09:56.701Z,99.31
2022-10-31T08:11:04.330Z,98.92
2022-10-31T08:12:08.448Z,99.10
2022-10-31T08:13:15.021Z,97.98
2022-10-31T08:14:22.358Z,97.99
2022-10-31T08:15:28.626Z,98.27
2022-10-31T08:16:35.847Z,98.00
2022-10-31T08:17:43.419Z,98.31
2022-10-31T08:18:49.049Z,97.78
2022-10-31T08:20:00.497Z,97.77
2022-10-31T08:21:13.558Z,97.22
2022-10-31T08:22:16.271Z,97.59
2022-10-31T08:23:21.640Z,97.15
2022-10-31T08:24:24.652Z,97.50
2022-10-31T08:25:32.310Z,97.01
2022-10-31T08:26:40.088Z,96.69
2022-10-31T08:27:50.433Z,97.05
2022-10-31T08:28:55.912Z,97.26
2022-10-31T08:30:01.951Z,96.93
2022-10-31T08:31:06.976Z,97.14
2022-10-31T08:32:16.858Z,96.31
2022-10-31T08:33:39.127Z,96.18
2022-10-31T08:35:00.563Z,95.98
2022-10-31T08:36:22.975Z,95.91
2022-10-31T08:37:46.958Z,95.58
2022-10-31T08:38:51.121Z,95.56
2022-10-31T08:39:54.078Z,95.46
2022-10-31T08:40:58.780Z,95.08
2022-10-31T08:42:02.608Z,95.14
2022-10-31T08:43:08.116Z,95.02
2022-10-31T08:44:12.268Z,94.61
2022-10-31T08:45:15.296Z,94.58
2022-10-31T08:46:19.710Z,94.22
2022-10-31T08:47:25.044Z,94.37
2022-10-31T08:48:29.025Z,93.85
2022-10-31T08:49:33.769Z,93.87
2022-10-31T08:50:38.639Z,93.50
2022-10-31T08:51:41.401Z,93.53
2022-10-31T08:53:04.094Z,93.27
2022-10-31T08:54:10.190Z,92.78
2022-10-31T08:55:32.330Z,92.62
2022-10-31T08:56:39.877Z,92.35
2022-10-31T08:58:00.663Z,92.24
2022-10-31T08:59:13.411Z,92.35
2022-10-31T09:00:46.490Z,91.69
2022-10-31T09:01:53.074Z,91.74
2022-10-31T09:03:02.097Z,91.63
2022-10-31T09:04:08.134Z,91.32
2022-10-31T09:05:12.543Z,91.08
2022-10-31T09:06:16.483Z,91.22
2022-10-31T09:07:20.986Z,90.93
2022-10-31T09:08:25.819Z,90.66
2022-10-31T09:09:28.751Z,90.47
2022-10-31T09:10:33.977Z,90.35
2022-10-31T09:11:40.349Z,90.19
2022-10-31T09:12:59.764Z,89.86
2022-10-31T09:14:32.815Z,89.37
2022-10-31T09:16:01.012Z,89.00
2022-10-31T09:17:04.529Z,88.76
2022-10-31T09:18:29.121Z,88.54
2022-10-31T09:19:34.541Z,88.62
2022-10-31T09:20:39.501Z,88.32
2022-10-31T09:21:42.884Z,87.94
2022-10-31T09:22:46.838Z,87.98
2022-10-31T09:23:50.851Z,87.57
2022-10-31T09:24:54.099Z,87.67
2022-10-31T09:25:58.509Z,87.32
2022-10-31T09:27:09.688Z,86.58
2022-10-31T09:28:19.230Z,86.33
2022-10-31T09:29:23.828Z,86.39
2022-10-31T09:30:34.239Z,86.02
2022-10-31T09:31:44.910Z,85.75
2022-10-31T09:33:20.316Z,85.90
2022-10-31T09:34:43.081Z,84.75
2022-10-31T09:35:54.149Z,85.37
2022-10-31T09:36:59.468Z,85.12
2022-10-31T09:38:04.830Z,85.10
2022-10-31T09:39:10.237Z,85.27
2022-10-31T09:40:15.420Z,84.47
2022-10-31T09:41:26.664Z,84.75
2022-10-31T09:42:51.949Z,84.23
2022-10-31T09:44:04.208Z,83.82
2022-10-31T09:45:13.332Z,84.20
2022-10-31T09:46:23.257Z,84.24
2022-10-31T09:47:37.959Z,83.70
2022-10-31T09:49:43.829Z,83.44
2022-10-31T09:50:51.360Z,83.26
2022-10-31T09:52:20.059Z,83.29
2022-10-31T09:53:27.656Z,83.35
2022-10-31T09:54:36.635Z,83.39
2022-10-31T09:55:42.228Z,83.10
2022-10-31T09:56:46.567Z,82.90
2022-10-31T09:57:49.592Z,82.41
2022-10-31T09:58:56.510Z,81.88
2022-10-31T10:00:01.138Z,82.03
2022-10-31T10:01:05.971Z,82.31
2022-10-31T10:02:16.765Z,82.05
2022-10-31T10:03:34.320Z,81.47
2022-10-31T10:04:52.953Z,81.34
2022-10-31T10:06:03.940Z,80.72
2022-10-31T10:07:37.149Z,80.83
2022-10-31T10:08:59.466Z,81.20
2022-10-31T10:10:29.640Z,81.44
2022-10-31T10:12:16.200Z,80.79
2022-10-31T10:13:39.548Z,80.08
2022-10-31T10:15:02.645Z,80.33
2022-10-31T10:16:19.700Z,80.10
2022-10-31T10:17:29.884Z,80.09
2022-10-31T10:18:41.757Z,79.92
2022-10-31T10:20:04.226Z,79.12
2022-10-31T10:21:19.420Z,79.37
2022-10-31T10:22:31.261Z,79.37
2022-10-31T10:23:45.834Z,79.35
2022-10-31T10:25:04.937Z,79.20
2022-10-31T10:26:17.850Z,79.19
2022-10-31T10:27:28.337Z,78.65
2022-10-31T10:28:39.408Z,78.33
2022-10-31T10:29:47.510Z,78.02
2022-10-31T10:30:53.577Z,77.92
2022-10-31T10:31:58.014Z,77.91
2022-10-31T10:33:06.443Z,77.49
2022-10-31T10:34:15.902Z,77.20
2022-10-31T10:35:26.990Z,77.31
2022-10-31T10:36:35.821Z,77.30
2022-10-31T10:37:41.098Z,77.10
2022-10-31T10:38:51.599Z,77.00
2022-10-31T10:39:57.350Z,76.98
2022-10-31T10:41:03.499Z,76.56
2022-10-31T10:42:29.819Z,75.99
2022-10-31T10:43:35.296Z,75.81
2022-10-31T10:44:57.604Z,75.92
2022-10-31T10:46:28.488Z,75.75
2022-10-31T10:47:42.786Z,75.29
2022-10-31T10:48:46.899Z,75.14
2022-10-31T10:49:52.992Z,74.09
2022-10-31T10:50:57.199Z,73.95
2022-10-31T10:52:19.432Z,74.21
2022-10-31T10:53:36.890Z,73.48
2022-10-31T10:55:01.509Z,72.98
2022-10-31T10:56:13.526Z,73.13
2022-10-31T10:57:25.727Z,72.72
2022-10-31T10:58:29.789Z,72.47
2022-10-31T10:59:33.858Z,71.85
2022-10-31T11:00:38.014Z,71.45
2022-10-31T11:01:43.297Z,71.69
2022-10-31T11:02:49.009Z,71.63
2022-10-31T11:03:52.200Z,70.91
2022-10-31T11:04:57.594Z,71.17
2022-10-31T11:06:03.070Z,71.03
2022-10-31T11:07:07.780Z,70.85
2022-10-31T11:08:11.784Z,70.66
2022-10-31T11:09:17.225Z,70.15
2022-10-31T11:10:21.291Z,70.09
2022-10-31T11:11:32.132Z,69.98
2022-10-31T11:12:35.442Z,69.98
2022-10-31T11:13:39.569Z,69.92
2022-10-31T11:14:49.844Z,69.36
2022-10-31T11:15:56.891Z,69.52
2022-10-31T11:17:10.942Z,68.93
2022-10-31T11:18:22.517Z,69.17
2022-10-31T11:19:28.789Z,69.00
2022-10-31T11:20:35.834Z,68.20
2022-10-31T11:21:40.297Z,67.98
2022-10-31T11:22:45.093Z,67.98
2022-10-31T11:23:49.567Z,68.08
2022-10-31T11:24:53.463Z,68.43
2022-10-31T11:25:58.333Z,68.16
2022-10-31T11:27:16.541Z,67.15
2022-10-31T11:28:19.432Z,67.80
2022-10-31T11:29:26.186Z,67.49
2022-10-31T11:30:29.398Z,67.45
2022-10-31T11:31:34.117Z,67.38
2022-10-31T11:32:39.153Z,66.96
2022-10-31T11:33:48.546Z,67.04
2022-10-31T11:34:55.128Z,67.14
2022-10-31T11:35:58.879Z,67.34
2022-10-31T11:37:12.418Z,66.38
2022-10-31T11:38:19.395Z,66.81
2022-10-31T11:39:25.197Z,66.89
2022-10-31T11:40:28.994Z,67.27
2022-10-31T11:41:35.658Z,67.11
2022-10-31T11:42:42.011Z,66.63
2022-10-31T11:43:49.144Z,66.71
2022-10-31T11:44:54.148Z,66.36
2022-10-31T11:45:58.517Z,65.58
2022-10-31T11:47:04.687Z,65.56
2022-10-31T11:48:19.019Z,64.40
2022-10-31T11:49:32.953Z,65.33
2022-10-31T11:50:38.639Z,65.34
2022-10-31T11:51:42.736Z,65.30
2022-10-31T11:52:47.109Z,65.23
2022-10-31T11:54:01.687Z,64.52
2022-10-31T11:55:18.894Z,64.51
2022-10-31T11:56:23.166Z,64.61
2022-10-31T11:57:29.406Z,64.33
2022-10-31T11:58:33.497Z,64.22
2022-10-31T11:59:37.320Z,64.16
2022-10-31T12:00:42.089Z,64.16
2022-10-31T12:01:50.185Z,63.85
2022-10-31T12:02:53.334Z,63.91
2022-10-31T12:04:05.738Z,63.66
2022-10-31T12:05:12.282Z,64.03
2022-10-31T12:06:20.227Z,63.66
2022-10-31T12:07:24.975Z,63.73
2022-10-31T12:08:33.030Z,63.58
2022-10-31T12:09:38.207Z,63.77
2022-10-31T12:10:48.557Z,63.60
2022-10-31T12:12:12.663Z,63.21
2022-10-31T12:13:29.648Z,63.39
2022-10-31T12:14:40.427Z,63.12
2022-10-31T12:15:48.058Z,62.74
2022-10-31T12:16:56.385Z,62.35
2022-10-31T12:18:25.333Z,60.25
2022-10-31T12:19:38.898Z,62.19
2022-10-31T12:20:50.860Z,61.82
2022-10-31T12:22:05.649Z,61.91
2022-10-31T12:23:17.683Z,61.80
2022-10-31T12:24:35.414Z,61.57
2022-10-31T12:25:46.612Z,61.48
2022-10-31T12:26:58.179Z,60.98
2022-10-31T12:28:24.219Z,61.08
2022-10-31T12:29:42.658Z,61.20
2022-10-31T12:30:57.547Z,61.16
2022-10-31T12:32:16.674Z,60.24
2022-10-31T12:33:35.329Z,59.80
2022-10-31T12:34:50.677Z,60.34
2022-10-31T12:36:02.511Z,60.18
2022-10-31T12:37:10.229Z,60.01
2022-10-31T12:38:26.939Z,59.63
2022-10-31T12:39:39.790Z,59.69
2022-10-31T12:40:57.557Z,59.07
2022-10-31T12:42:07.348Z,58.58
2022-10-31T12:43:23.273Z,58.39
2022-10-31T12:45:05.397Z,56.92
2022-10-31T12:46:12.648Z,58.67
2022-10-31T12:47:35.630Z,57.66
2022-10-31T12:49:05.166Z,58.09
2022-10-31T12:50:20.799Z,58.03
2022-10-31T12:51:34.248Z,58.09
2022-10-31T12:52:47.299Z,57.94
2022-10-31T12:54:03.616Z,57.75
2022-10-31T12:55:22.198Z,57.10
2022-10-31T12:56:34.019Z,57.60
2022-10-31T12:57:41.952Z,56.64
2022-10-31T12:58:48.297Z,56.30
2022-10-31T12:59:55.939Z,56.54
2022-10-31T13:01:15.848Z,55.29
2022-10-31T13:02:22.457Z,55.71
2022-10-31T13:03:34.641Z,54.83
2022-10-31T13:04:45.116Z,54.46
2022-10-31T13:05:52.147Z,54.39
2022-10-31T13:06:58.457Z,54.32
2022-10-31T13:08:06.008Z,54.37
2022-10-31T13:09:12.078Z,53.90
2022-10-31T13:10:22.470Z,53.27
2022-10-31T13:11:30.330Z,53.61
2022-10-31T13:12:37.460Z,53.62
2022-10-31T13:13:44.198Z,53.55
2022-10-31T13:14:50.857Z,53.22
2022-10-31T13:15:57.577Z,53.12
2022-10-31T13:17:01.375Z,52.74
2022-10-31T13:18:08.669Z,52.40
2022-10-31T13:19:15.162Z,52.50
2022-10-31T13:20:24.436Z,52.34
2022-10-31T13:21:31.767Z,52.14
2022-10-31T13:22:36.985Z,51.84
2022-10-31T13:23:50.928Z,51.82
2022-10-31T13:24:59.506Z,51.35
2022-10-31T13:26:11.327Z,50.65
2022-10-31T13:27:18.027Z,51.31
2022-10-31T13:28:28.720Z,51.80
2022-10-31T13:29:35.608Z,51.88
2022-10-31T13:30:39.571Z,51.55
2022-10-31T13:31:44.009Z,51.00
2022-10-31T13:32:49.448Z,50.72
2022-10-31T13:33:57.116Z,50.92
2022-10-31T13:35:00.792Z,51.00
2022-10-31T13:36:15.540Z,50.70
2022-10-31T13:37:26.129Z,50.56
2022-10-31T13:38:36.098Z,50.47
2022-10-31T13:39:49.439Z,49.71
2022-10-31T13:40:57.761Z,50.65
2022-10-31T13:42:05.369Z,50.73
2022-10-31T13:43:16.542Z,50.54
2022-10-31T13:44:20.969Z,51.02
2022-10-31T13:45:27.158Z,50.70
2022-10-31T13:46:37.882Z,50.59
2022-10-31T13:47:43.747Z,50.90
2022-10-31T13:48:47.629Z,51.10
2022-10-31T13:49:50.361Z,51.00
2022-10-31T13:51:03.462Z,50.42
2022-10-31T13:52:16.555Z,50.73
2022-10-31T13:53:23.257Z,51.43
2022-10-31T13:54:34.327Z,51.26
2022-10-31T13:55:39.789Z,51.52
2022-10-31T13:56:43.782Z,51.46
2022-10-31T13:57:49.248Z,51.80
2022-10-31T13:59:05.229Z,52.00
2022-10-31T14:00:28.990Z,51.97
2022-10-31T14:01:36.694Z,52.80
2022-10-31T14:02:48.488Z,52.82
2022-10-31T14:04:19.318Z,53.23
2022-10-31T14:05:28.289Z,53.39
2022-10-31T14:06:44.933Z,53.89
2022-10-31T14:07:49.224Z,54.27
2022-10-31T14:08:53.162Z,54.51
2022-10-31T14:10:01.376Z,54.87
2022-10-31T14:11:05.425Z,55.15
2022-10-31T14:12:12.949Z,55.19
2022-10-31T14:13:21.510Z,56.01
2022-10-31T14:14:29.249Z,56.15
2022-10-31T14:15:34.068Z,56.16
2022-10-31T14:16:39.678Z,55.95
2022-10-31T14:17:49.579Z,56.39
2022-10-31T14:19:00.440Z,56.48
2022-10-31T14:20:24.580Z,56.43
2022-10-31T14:21:30.977Z,56.21
2022-10-31T14:22:43.074Z,56.19
2022-10-31T14:23:49.515Z,56.26
2022-10-31T14:24:55.090Z,56.70
2022-10-31T14:26:10.189Z,57.01
2022-10-31T14:27:37.009Z,57.14
2022-10-31T14:28:42.192Z,57.18
2022-10-31T14:29:50.194Z,57.34
2022-10-31T14:30:55.861Z,57.36
2022-10-31T14:32:12.123Z,57.48
2022-10-31T14:33:19.632Z,57.69
2022-10-31T14:34:26.669Z,57.95
2022-10-31T14:35:46.049Z,58.46
2022-10-31T14:37:12.303Z,59.03
2022-10-31T14:38:39.787Z,59.92
2022-10-31T14:39:52.389Z,59.95
2022-10-31T14:41:21.759Z,59.72
2022-10-31T14:42:36.779Z,59.61
2022-10-31T14:44:07.651Z,59.95
2022-10-31T14:45:20.707Z,60.38
2022-10-31T14:46:38.380Z,61.04
2022-10-31T14:47:49.709Z,61.15
2022-10-31T14:49:02.749Z,61.28
2022-10-31T14:50:23.150Z,61.64
2022-10-31T14:51:29.384Z,61.32
2022-10-31T14:52:32.510Z,61.58
2022-10-31T14:53:38.319Z,61.99
2022-10-31T14:54:42.859Z,62.58
2022-10-31T14:55:50.319Z,62.80
2022-10-31T14:56:55.381Z,62.85